< < Back
Terminal Aerodrome Forecast


Current Version              Previous Versions:   1  2  3  4  5  6  7  8  9  

Terminal Aerodrome Forecast

887
FTUS42 KFFC 032341
TAFMCN
TAF
KMCN 032341Z 0400/0424 26006KT P6SM SCT035 BKN080
     FM040200 23004KT P6SM SCT020 BKN035
     FM040900 24004KT P6SM VCSH SCT020 BKN045
     FM041400 26010G17KT P6SM SCT035 BKN100
     FM041800 26012G20KT P6SM SCT045 BKN100 PROB30 0420/0424 4SM
      -TSRA BR BKN025CB=

Latest METAR

497
SAUS80 KWBC 041300 RRA
MTRMCN
METAR KMCN 041253Z 24003KT 10SM FEW035 23/20 A3010 RMK AO2 SLP186
T02280200


USA.gov is the U.S. government's official web portal to all federal, state and local government web resources and services.